createdAt,value
2023-03-02T00:02:25.786Z,32.53
2023-03-02T00:04:58.321Z,37.08
2023-03-02T00:07:57.919Z,35.45
2023-03-02T00:10:26.160Z,39.20
2023-03-02T00:12:55.165Z,35.50
2023-03-02T00:15:25.676Z,33.33
2023-03-02T00:17:52.705Z,38.10
2023-03-02T00:20:21.941Z,36.65
2023-03-02T00:22:52.478Z,37.58
2023-03-02T00:25:25.288Z,32.70
2023-03-02T00:27:57.558Z,32.25
2023-03-02T00:30:26.154Z,34.35
2023-03-02T00:32:52.999Z,38.42
2023-03-02T00:35:23.494Z,33.70
2023-03-02T00:37:52.297Z,28.48
2023-03-02T00:40:19.059Z,31.15
2023-03-02T00:42:51.277Z,29.63
2023-03-02T00:45:18.145Z,30.67
2023-03-02T00:47:48.118Z,34.13
2023-03-02T00:50:14.739Z,32.47
2023-03-02T00:52:41.541Z,38.85
2023-03-02T00:55:10.054Z,31.83
2023-03-02T00:57:37.048Z,37.05
2023-03-02T01:00:05.270Z,31.20
2023-03-02T01:02:43.431Z,40.17
2023-03-02T01:05:14.485Z,38.35
2023-03-02T01:07:41.439Z,34.50
2023-03-02T01:10:13.473Z,33.63
2023-03-02T01:12:44.898Z,38.63
2023-03-02T01:15:18.532Z,36.78
2023-03-02T01:17:49.870Z,34.88
2023-03-02T01:20:17.182Z,41.45
2023-03-02T01:22:44.639Z,30.05
2023-03-02T01:25:22.654Z,38.08
2023-03-02T01:27:49.450Z,37.55
2023-03-02T01:30:18.884Z,40.90
2023-03-02T01:32:45.872Z,32.40
2023-03-02T01:35:13.915Z,35.20
2023-03-02T01:37:43.067Z,39.33
2023-03-02T01:40:12.591Z,35.58
2023-03-02T01:42:53.756Z,35.15
2023-03-02T01:45:53.618Z,33.88
2023-03-02T01:48:50.393Z,33.55
2023-03-02T01:55:47.791Z,36.58
2023-03-02T01:58:18.652Z,36.78
2023-03-02T02:00:46.125Z,39.17
2023-03-02T02:03:24.787Z,39.05
2023-03-02T02:06:24.074Z,38.70
2023-03-02T02:08:57.830Z,33.13
2023-03-02T02:11:26.666Z,32.60
2023-03-02T02:13:57.186Z,35.60
2023-03-02T02:16:25.819Z,37.85
2023-03-02T02:18:52.784Z,43.13
2023-03-02T02:21:21.336Z,35.17
2023-03-02T02:24:12.441Z,39.15
2023-03-02T02:26:47.783Z,34.75
2023-03-02T02:29:44.830Z,35.17
2023-03-02T02:32:25.636Z,37.47
2023-03-02T02:35:05.718Z,35.78
2023-03-02T02:37:35.115Z,33.03
2023-03-02T02:40:08.866Z,35.85
2023-03-02T02:42:41.378Z,37.13
2023-03-02T02:45:25.837Z,35.13
2023-03-02T02:47:55.325Z,36.15
2023-03-02T02:50:29.684Z,33.95
2023-03-02T02:53:03.925Z,43.53
2023-03-02T02:55:35.056Z,40.13
2023-03-02T02:58:09.231Z,39.38
2023-03-02T03:00:36.674Z,36.75
2023-03-02T03:03:28.821Z,38.40
2023-03-02T03:06:02.754Z,35.78
2023-03-02T03:09:06.853Z,39.80
2023-03-02T03:11:48.834Z,39.38
2023-03-02T03:14:39.891Z,37.67
2023-03-02T03:17:12.129Z,38.80
2023-03-02T03:19:47.064Z,34.88
2023-03-02T03:22:15.839Z,37.30
2023-03-02T03:24:49.305Z,44.17
2023-03-02T03:27:21.380Z,74.75
2023-03-02T03:29:54.919Z,46.00
2023-03-02T03:32:25.138Z,42.50
2023-03-02T03:34:55.765Z,39.63
2023-03-02T03:37:30.165Z,44.63
2023-03-02T03:39:56.912Z,48.08
2023-03-02T03:42:23.881Z,40.80
2023-03-02T03:44:54.022Z,44.00
2023-03-02T03:47:46.152Z,38.75
2023-03-02T03:50:17.272Z,36.47
2023-03-02T03:52:44.371Z,41.25
2023-03-02T03:55:19.303Z,39.92
2023-03-02T03:57:50.018Z,38.60
2023-03-02T04:00:21.540Z,38.88
2023-03-02T04:03:05.134Z,35.58
2023-03-02T04:08:08.502Z,42.97
2023-03-02T04:10:35.644Z,41.17
2023-03-02T04:13:04.603Z,39.25
2023-03-02T04:15:31.702Z,41.05
2023-03-02T04:18:01.663Z,31.10
2023-03-02T04:20:29.862Z,35.53
2023-03-02T04:23:02.476Z,35.58
2023-03-02T04:25:32.436Z,42.63
2023-03-02T04:28:11.574Z,39.20
2023-03-02T04:30:40.542Z,40.65
2023-03-02T04:33:07.616Z,45.75
2023-03-02T04:35:38.284Z,40.97
2023-03-02T04:38:07.712Z,43.38
2023-03-02T04:40:36.531Z,38.85
2023-03-02T04:43:05.568Z,40.50
2023-03-02T04:45:32.540Z,37.92
2023-03-02T04:48:01.681Z,41.15
2023-03-02T04:50:33.025Z,40.10
2023-03-02T04:53:05.883Z,53.33
2023-03-02T04:55:32.820Z,43.97
2023-03-02T04:57:59.407Z,44.97
2023-03-02T05:00:28.065Z,41.40
2023-03-02T05:03:02.864Z,53.22
2023-03-02T05:05:32.324Z,45.33
2023-03-02T05:08:01.894Z,42.25
2023-03-02T05:10:29.149Z,48.58
2023-03-02T05:13:01.832Z,43.70
2023-03-02T05:18:09.081Z,39.45
2023-03-02T05:20:40.109Z,48.67
2023-03-02T05:23:26.413Z,36.08
2023-03-02T05:26:06.768Z,59.50
2023-03-02T05:29:05.954Z,42.90
2023-03-02T05:31:40.900Z,46.85
2023-03-02T05:34:59.789Z,37.03
2023-03-02T05:37:28.815Z,45.22
2023-03-02T05:40:01.426Z,43.47
2023-03-02T05:42:35.329Z,41.72
2023-03-02T05:45:05.623Z,51.65
2023-03-02T05:47:35.092Z,61.97
2023-03-02T05:50:02.679Z,60.65
2023-03-02T05:52:29.376Z,54.45
2023-03-02T05:54:59.517Z,62.63
2023-03-02T05:57:29.963Z,71.30
2023-03-02T05:59:57.029Z,57.97
2023-03-02T06:02:31.652Z,70.57
2023-03-02T06:05:01.438Z,63.78
2023-03-02T06:07:29.154Z,51.38
2023-03-02T06:09:58.574Z,45.85
2023-03-02T06:12:25.376Z,45.22
2023-03-02T06:14:53.380Z,42.65
2023-03-02T06:17:23.730Z,43.05
2023-03-02T06:19:51.551Z,39.90
2023-03-02T06:22:18.765Z,41.88
2023-03-02T06:24:45.521Z,44.42
2023-03-02T06:27:13.546Z,40.95
2023-03-02T06:29:57.455Z,36.78
2023-03-02T06:32:26.706Z,44.25
2023-03-02T06:34:59.251Z,47.42
2023-03-02T06:37:32.264Z,44.88
2023-03-02T06:40:09.436Z,41.50
2023-03-02T06:42:42.148Z,40.38
2023-03-02T06:45:11.792Z,45.70
2023-03-02T06:47:45.070Z,39.35
2023-03-02T06:50:16.210Z,38.28
2023-03-02T06:53:34.570Z,39.88
2023-03-02T06:56:05.204Z,43.33
2023-03-02T06:58:34.472Z,45.65
2023-03-02T07:01:05.181Z,41.97
2023-03-02T07:03:35.330Z,34.50
2023-03-02T07:06:04.954Z,42.78
2023-03-02T07:08:34.127Z,39.10
2023-03-02T07:11:30.641Z,43.70
2023-03-02T07:16:46.691Z,49.40
2023-03-02T07:19:14.698Z,38.72
2023-03-02T07:21:41.958Z,41.53
2023-03-02T07:24:08.736Z,40.60
2023-03-02T07:26:38.909Z,42.15
2023-03-02T07:29:07.003Z,38.25
2023-03-02T07:31:35.390Z,42.28
2023-03-02T07:34:02.234Z,40.03
2023-03-02T07:36:32.736Z,37.53
2023-03-02T07:39:01.675Z,38.88
2023-03-02T07:41:31.227Z,41.50
2023-03-02T07:43:59.742Z,39.38
2023-03-02T07:46:28.546Z,33.42
2023-03-02T07:48:55.162Z,42.95
2023-03-02T07:51:21.887Z,37.88
2023-03-02T07:53:48.488Z,39.97
2023-03-02T07:56:15.218Z,34.67
2023-03-02T07:58:47.270Z,40.30
2023-03-02T08:01:20.239Z,32.25
2023-03-02T08:03:48.043Z,35.75
2023-03-02T08:06:17.376Z,39.65
2023-03-02T08:08:44.110Z,35.65
2023-03-02T08:11:13.923Z,37.03
2023-03-02T08:16:32.092Z,39.55
2023-03-02T08:19:00.031Z,38.25
2023-03-02T08:21:58.676Z,33.10
2023-03-02T08:24:25.596Z,33.63
2023-03-02T08:26:54.164Z,39.20
2023-03-02T08:29:21.232Z,32.20
2023-03-02T08:31:51.167Z,30.73
2023-03-02T08:34:18.200Z,36.47
2023-03-02T08:36:45.226Z,36.22
2023-03-02T08:39:12.191Z,32.55
2023-03-02T08:41:40.904Z,35.15
2023-03-02T08:44:10.022Z,32.97
2023-03-02T08:46:37.872Z,33.65
2023-03-02T08:49:04.524Z,33.67
2023-03-02T08:51:31.586Z,35.63
2023-03-02T08:54:01.815Z,32.53
2023-03-02T08:56:43.592Z,35.55
2023-03-02T08:59:12.660Z,37.17
2023-03-02T09:01:41.334Z,34.22
2023-03-02T09:04:09.760Z,38.83
2023-03-02T09:06:42.273Z,31.92
2023-03-02T09:09:13.302Z,33.60
2023-03-02T09:11:44.087Z,34.33
2023-03-02T09:14:16.312Z,29.65
2023-03-02T09:16:46.318Z,32.35
2023-03-02T09:19:13.585Z,30.92
2023-03-02T09:21:42.996Z,42.38
2023-03-02T09:24:35.206Z,34.42
2023-03-02T09:27:03.184Z,27.70
2023-03-02T09:29:29.896Z,29.65
2023-03-02T09:31:56.626Z,31.15
2023-03-02T09:34:23.484Z,31.08
2023-03-02T09:37:11.286Z,38.08
2023-03-02T09:39:46.363Z,27.92
2023-03-02T09:42:13.092Z,32.63
2023-03-02T09:44:39.949Z,29.08
2023-03-02T09:47:45.619Z,30.02
2023-03-02T09:50:29.647Z,31.13
2023-03-02T09:53:23.319Z,32.03
2023-03-02T09:55:58.500Z,30.38
2023-03-02T09:58:33.320Z,32.17
2023-03-02T10:01:09.444Z,25.35
2023-03-02T10:03:44.458Z,31.13
2023-03-02T10:06:12.381Z,29.88
2023-03-02T10:08:40.273Z,32.30
2023-03-02T10:11:22.788Z,32.67
2023-03-02T10:14:14.455Z,28.80
2023-03-02T10:17:17.550Z,26.85
2023-03-02T10:19:52.358Z,26.83
2023-03-02T10:22:43.897Z,34.50
2023-03-02T10:25:35.360Z,30.30
2023-03-02T10:28:18.217Z,29.20
2023-03-02T10:33:16.460Z,28.95
2023-03-02T10:35:49.108Z,31.95
2023-03-02T10:38:22.414Z,29.23
2023-03-02T10:40:59.347Z,26.83
2023-03-02T10:43:59.050Z,30.02
2023-03-02T10:46:26.404Z,29.65
2023-03-02T10:49:00.635Z,27.27
2023-03-02T10:51:37.408Z,28.13
2023-03-02T10:54:16.227Z,28.80
2023-03-02T10:56:49.584Z,21.75
2023-03-02T10:59:42.886Z,23.42
2023-03-02T11:03:34.966Z,23.30
2023-03-02T11:06:22.610Z,25.38
2023-03-02T11:09:07.469Z,25.45
2023-03-02T11:11:37.965Z,25.77
2023-03-02T11:14:15.222Z,26.05
2023-03-02T11:16:46.589Z,27.23
2023-03-02T11:19:18.644Z,25.10
2023-03-02T11:22:26.731Z,27.88
2023-03-02T11:24:59.584Z,29.40
2023-03-02T11:30:00.807Z,25.05
2023-03-02T11:32:44.330Z,28.08
2023-03-02T11:35:39.541Z,25.13
2023-03-02T11:38:21.502Z,27.08
2023-03-02T11:40:58.007Z,26.70
2023-03-02T11:43:25.294Z,25.38
2023-03-02T11:46:05.089Z,24.88
2023-03-02T11:48:42.567Z,27.38
2023-03-02T11:51:17.806Z,27.80
2023-03-02T11:53:53.602Z,26.10
2023-03-02T11:56:24.480Z,26.38
2023-03-02T11:58:59.509Z,27.52
2023-03-02T12:01:39.667Z,24.40
2023-03-02T12:04:37.123Z,26.67
2023-03-02T12:07:20.546Z,25.10
2023-03-02T12:09:56.750Z,24.92
2023-03-02T12:12:34.618Z,24.23
2023-03-02T12:15:02.375Z,27.20
2023-03-02T12:17:32.668Z,27.25
2023-03-02T12:20:20.588Z,24.98
2023-03-02T12:22:47.399Z,23.83
2023-03-02T12:25:21.455Z,28.75
2023-03-02T12:27:59.622Z,29.10
2023-03-02T12:30:27.833Z,25.98
2023-03-02T12:33:20.827Z,29.23
2023-03-02T12:35:51.196Z,28.92
2023-03-02T12:38:41.488Z,27.73
2023-03-02T12:41:16.864Z,22.15
2023-03-02T12:44:26.669Z,27.15
2023-03-02T12:46:59.219Z,24.20
2023-03-02T12:49:47.574Z,25.63
2023-03-02T12:52:41.758Z,29.20
2023-03-02T12:55:10.587Z,26.33
2023-03-02T12:58:01.183Z,26.65
2023-03-02T13:00:32.646Z,23.15
2023-03-02T13:03:01.601Z,26.35
2023-03-02T13:05:34.857Z,24.65
2023-03-02T13:08:05.604Z,26.88
2023-03-02T13:11:00.619Z,29.40
2023-03-02T13:13:40.977Z,27.50
2023-03-02T13:16:30.692Z,28.38
2023-03-02T13:19:04.666Z,28.33
2023-03-02T13:22:02.411Z,28.67
2023-03-02T13:24:46.732Z,25.33
2023-03-02T13:27:19.999Z,24.33
2023-03-02T13:29:52.125Z,28.25
2023-03-02T13:32:21.631Z,26.17
2023-03-02T13:34:53.559Z,26.02
2023-03-02T13:37:42.947Z,25.77
2023-03-02T13:40:23.536Z,27.10
2023-03-02T13:42:50.555Z,26.88
2023-03-02T13:45:24.711Z,28.33
2023-03-02T13:47:57.645Z,26.27
2023-03-02T13:50:32.695Z,28.50
2023-03-02T13:53:04.650Z,32.72
2023-03-02T13:55:34.605Z,29.75
2023-03-02T13:58:01.894Z,26.00
2023-03-02T14:00:32.880Z,25.02
2023-03-02T14:03:02.048Z,25.15
2023-03-02T14:05:33.876Z,26.73
2023-03-02T14:08:06.481Z,27.23
2023-03-02T14:13:12.887Z,25.10
2023-03-02T14:15:42.482Z,32.33
2023-03-02T14:18:39.777Z,28.42
2023-03-02T14:21:27.157Z,24.95
2023-03-02T14:23:59.869Z,23.48
2023-03-02T14:26:42.814Z,27.55
2023-03-02T14:29:31.752Z,25.63
2023-03-02T14:32:02.480Z,23.50
2023-03-02T14:34:29.266Z,26.65
2023-03-02T14:37:02.468Z,22.88
2023-03-02T14:39:32.175Z,25.83
2023-03-02T14:42:02.827Z,24.52
2023-03-02T14:44:29.537Z,22.65
2023-03-02T14:46:59.279Z,24.65
2023-03-02T14:49:27.828Z,21.10
2023-03-02T14:52:03.412Z,23.48
2023-03-02T14:54:43.804Z,23.60
2023-03-02T14:57:28.152Z,25.38
2023-03-02T14:59:59.212Z,22.75
2023-03-02T15:02:34.996Z,27.10
2023-03-02T15:05:04.474Z,21.33
2023-03-02T15:07:33.919Z,24.08
2023-03-02T15:10:00.617Z,26.60
2023-03-02T15:12:39.945Z,24.13
2023-03-02T15:15:09.735Z,22.95
2023-03-02T15:17:36.531Z,31.20
2023-03-02T15:20:12.570Z,29.52
2023-03-02T15:22:40.845Z,24.45
2023-03-02T15:25:09.301Z,27.25
2023-03-02T15:27:46.946Z,23.42
2023-03-02T15:30:13.775Z,24.60
2023-03-02T15:33:06.202Z,29.10
2023-03-02T15:35:35.892Z,30.08
2023-03-02T15:38:34.079Z,49.47
2023-03-02T15:42:23.432Z,31.13
2023-03-02T15:45:15.908Z,25.55
2023-03-02T15:47:42.596Z,25.30
2023-03-02T15:50:13.997Z,27.75
2023-03-02T15:52:43.829Z,34.15
2023-03-02T15:55:14.000Z,37.67
2023-03-02T15:57:43.261Z,33.17
2023-03-02T16:00:13.554Z,29.40
2023-03-02T16:02:42.271Z,31.83
2023-03-02T16:05:10.901Z,26.48
2023-03-02T16:07:40.524Z,34.53
2023-03-02T16:10:14.599Z,30.77
2023-03-02T16:12:46.836Z,28.75
2023-03-02T16:15:13.748Z,31.75
2023-03-02T16:17:45.255Z,31.27
2023-03-02T16:20:19.106Z,30.48
2023-03-02T16:22:45.776Z,31.90
2023-03-02T16:25:15.975Z,32.25
2023-03-02T16:27:46.796Z,33.08
2023-03-02T16:30:15.318Z,31.20
2023-03-02T16:32:42.575Z,35.25
2023-03-02T16:35:12.015Z,33.40
2023-03-02T16:37:38.805Z,34.03
2023-03-02T16:40:09.045Z,35.08
2023-03-02T16:42:42.911Z,33.50
2023-03-02T16:45:10.437Z,29.80
2023-03-02T16:47:38.248Z,27.35
2023-03-02T16:50:06.288Z,27.67
2023-03-02T16:52:35.031Z,29.05
2023-03-02T16:55:02.088Z,30.80
2023-03-02T16:57:29.112Z,27.10
2023-03-02T17:00:01.994Z,27.70
2023-03-02T17:02:29.432Z,30.70
2023-03-02T17:04:57.134Z,29.95
2023-03-02T17:07:51.918Z,32.67
2023-03-02T17:10:46.603Z,29.27
2023-03-02T17:13:16.667Z,29.42
2023-03-02T17:15:43.688Z,29.58
2023-03-02T17:18:10.910Z,28.63
2023-03-02T17:20:38.125Z,32.17
2023-03-02T17:23:05.087Z,38.97
2023-03-02T17:25:35.097Z,35.58
2023-03-02T17:28:01.952Z,31.25
2023-03-02T17:30:36.272Z,35.33
2023-03-02T17:33:06.219Z,32.63
2023-03-02T17:35:32.940Z,32.15
2023-03-02T17:38:00.128Z,40.53
2023-03-02T17:40:30.670Z,29.25
2023-03-02T17:42:57.921Z,40.95
2023-03-02T17:45:29.997Z,47.40
2023-03-02T17:47:58.949Z,38.67
2023-03-02T17:50:26.910Z,32.20
2023-03-02T17:52:54.853Z,39.88
2023-03-02T17:55:24.628Z,39.72
2023-03-02T17:57:53.918Z,44.03
2023-03-02T18:00:24.902Z,38.05
2023-03-02T18:02:52.757Z,39.65
2023-03-02T18:05:22.700Z,44.80
2023-03-02T18:07:52.107Z,41.13
2023-03-02T18:10:19.847Z,41.47
2023-03-02T18:12:52.345Z,40.53
2023-03-02T18:15:21.498Z,38.13
2023-03-02T18:17:50.458Z,37.95
2023-03-02T18:20:18.360Z,40.17
2023-03-02T18:22:45.013Z,37.17
2023-03-02T18:25:11.912Z,41.30
2023-03-02T18:27:38.683Z,46.50
2023-03-02T18:30:06.930Z,37.75
2023-03-02T18:32:35.149Z,41.58
2023-03-02T18:35:01.999Z,40.80
2023-03-02T18:37:33.109Z,39.55
2023-03-02T18:40:05.832Z,43.80
2023-03-02T18:45:03.019Z,43.10
2023-03-02T18:47:34.117Z,41.53
2023-03-02T18:50:01.006Z,41.40
2023-03-02T18:52:27.702Z,43.42
2023-03-02T18:55:16.378Z,39.70
2023-03-02T18:57:45.369Z,45.70
2023-03-02T19:00:18.894Z,43.22
2023-03-02T19:02:49.248Z,43.65
2023-03-02T19:05:20.893Z,71.53
2023-03-02T19:07:50.193Z,55.75
2023-03-02T19:10:17.331Z,54.80
2023-03-02T19:12:45.841Z,46.65
2023-03-02T19:15:13.037Z,43.13
2023-03-02T19:17:41.961Z,44.75
2023-03-02T19:20:29.314Z,42.83
2023-03-02T19:22:59.317Z,43.55
2023-03-02T19:25:26.032Z,42.13
2023-03-02T19:27:53.234Z,68.22
2023-03-02T19:30:45.607Z,57.42
2023-03-02T19:39:04.400Z,44.55
2023-03-02T19:41:33.696Z,40.40
2023-03-02T19:44:01.562Z,46.85
2023-03-02T19:46:33.238Z,48.47
2023-03-02T19:48:59.895Z,37.83
2023-03-02T19:51:28.984Z,44.10
2023-03-02T19:53:57.765Z,40.28
2023-03-02T19:56:31.962Z,40.00
2023-03-02T20:01:54.395Z,46.08
2023-03-02T20:04:23.637Z,39.60
2023-03-02T20:07:06.327Z,43.88
2023-03-02T20:09:33.177Z,37.63
2023-03-02T20:12:02.150Z,39.95
2023-03-02T20:14:34.087Z,44.03
2023-03-02T20:17:12.607Z,46.88
2023-03-02T20:19:39.339Z,42.28
2023-03-02T20:22:06.150Z,43.58
2023-03-02T20:24:33.975Z,38.35
2023-03-02T20:27:02.239Z,44.53
2023-03-02T20:29:29.397Z,44.65
2023-03-02T20:31:57.269Z,43.78
2023-03-02T20:34:25.043Z,54.55
2023-03-02T20:36:51.882Z,43.65
2023-03-02T20:39:25.958Z,47.40
2023-03-02T20:41:54.587Z,46.00
2023-03-02T20:44:23.119Z,49.13
2023-03-02T20:47:00.313Z,48.75
2023-03-02T20:49:29.441Z,57.05
2023-03-02T20:51:59.367Z,58.50
2023-03-02T20:54:30.681Z,57.40
2023-03-02T20:57:01.183Z,51.20
2023-03-02T20:59:28.370Z,51.70
2023-03-02T21:01:56.462Z,58.50
2023-03-02T21:04:29.367Z,57.55
2023-03-02T21:06:58.620Z,57.88
2023-03-02T21:09:27.727Z,58.13
2023-03-02T21:11:58.722Z,53.97
2023-03-02T21:14:29.070Z,48.67
2023-03-02T21:16:57.782Z,53.08
2023-03-02T21:19:25.285Z,47.80
2023-03-02T21:21:55.009Z,50.95
2023-03-02T21:24:22.045Z,58.28
2023-03-02T21:26:51.969Z,45.40
2023-03-02T21:29:20.934Z,49.25
2023-03-02T21:31:48.001Z,49.47
2023-03-02T21:34:15.475Z,54.65
2023-03-02T21:36:45.976Z,57.20
2023-03-02T21:39:13.281Z,57.08
2023-03-02T21:41:40.028Z,61.47
2023-03-02T21:44:09.272Z,81.95
2023-03-02T21:46:37.318Z,80.10
2023-03-02T21:49:06.726Z,91.22
2023-03-02T21:51:34.508Z,85.53
2023-03-02T21:54:03.800Z,69.90
2023-03-02T21:56:33.444Z,68.60
2023-03-02T21:59:00.657Z,62.30
2023-03-02T22:01:32.029Z,55.13
2023-03-02T22:04:01.465Z,62.28
2023-03-02T22:06:33.982Z,60.83
2023-03-02T22:09:01.207Z,64.72
2023-03-02T22:11:32.436Z,62.08
2023-03-02T22:14:02.833Z,57.85
2023-03-02T22:16:40.051Z,54.40
2023-03-02T22:19:24.392Z,50.85
2023-03-02T22:21:53.109Z,66.07
2023-03-02T22:24:30.700Z,61.85
2023-03-02T22:27:18.994Z,74.65
2023-03-02T22:29:46.736Z,59.05
2023-03-02T22:32:19.222Z,56.17
2023-03-02T22:34:48.595Z,56.30
2023-03-02T22:37:32.866Z,40.30
2023-03-02T22:40:22.513Z,43.92
2023-03-02T22:42:56.002Z,56.95
2023-03-02T22:45:22.708Z,69.47
2023-03-02T22:47:52.693Z,61.65
2023-03-02T22:50:24.909Z,53.55
2023-03-02T22:52:56.871Z,43.17
2023-03-02T22:55:44.480Z,51.88
2023-03-02T22:58:23.386Z,49.90
2023-03-02T23:00:50.431Z,50.38
2023-03-02T23:03:19.098Z,44.40
2023-03-02T23:05:50.982Z,45.30
2023-03-02T23:08:27.920Z,31.27
2023-03-02T23:10:57.816Z,45.05
2023-03-02T23:13:37.835Z,45.15
2023-03-02T23:16:20.576Z,41.63
2023-03-02T23:19:17.357Z,41.58
2023-03-02T23:21:50.392Z,32.50
2023-03-02T23:24:21.259Z,40.25
2023-03-02T23:33:08.121Z,41.22
2023-03-02T23:35:41.668Z,44.28
2023-03-02T23:38:08.357Z,36.97
2023-03-02T23:40:40.820Z,44.25
2023-03-02T23:46:02.820Z,43.85
2023-03-02T23:48:29.633Z,45.75
2023-03-02T23:50:56.766Z,39.03
2023-03-02T23:53:23.658Z,45.88
2023-03-02T23:55:52.795Z,36.17
2023-03-02T23:58:20.176Z,43.67
